createdAt,value
2022-08-20T00:00:12.683Z,0.00
2022-08-20T00:01:02.683Z,0.00
2022-08-20T00:01:52.681Z,0.00
2022-08-20T00:02:42.652Z,0.00
2022-08-20T00:03:32.632Z,0.00
2022-08-20T00:04:22.611Z,0.00
2022-08-20T00:05:12.596Z,0.00
2022-08-20T00:06:02.614Z,0.00
2022-08-20T00:06:52.592Z,0.00
2022-08-20T00:07:42.585Z,0.00
2022-08-20T00:08:32.602Z,0.00
2022-08-20T00:09:22.573Z,0.00
2022-08-20T00:10:12.544Z,0.00
2022-08-20T00:11:02.555Z,0.00
2022-08-20T00:11:52.543Z,0.00
2022-08-20T00:12:42.522Z,0.00
2022-08-20T00:13:32.533Z,0.00
2022-08-20T00:14:22.514Z,0.00
2022-08-20T00:15:12.500Z,0.00
2022-08-20T00:16:02.503Z,0.00
2022-08-20T00:16:52.470Z,0.00
2022-08-20T00:17:42.485Z,0.00
2022-08-20T00:18:32.482Z,0.00
2022-08-20T00:19:22.464Z,0.00
2022-08-20T00:20:12.444Z,0.00
2022-08-20T00:21:02.443Z,0.00
2022-08-20T00:21:52.430Z,0.00
2022-08-20T00:22:43.440Z,0.00
2022-08-20T00:23:32.445Z,0.00
2022-08-20T00:24:22.412Z,0.00
2022-08-20T00:25:12.383Z,0.00
2022-08-20T00:26:02.380Z,0.00
2022-08-20T00:26:52.505Z,0.00
2022-08-20T00:27:42.361Z,0.00
2022-08-20T00:28:32.342Z,0.00
2022-08-20T00:29:22.577Z,0.00
2022-08-20T00:30:12.331Z,0.00
2022-08-20T00:31:02.330Z,0.00
2022-08-20T00:31:52.331Z,0.00
2022-08-20T00:32:42.323Z,0.00
2022-08-20T00:33:32.309Z,0.00
2022-08-20T00:34:22.309Z,0.00
2022-08-20T00:35:13.094Z,0.00
2022-08-20T00:36:02.288Z,0.00
2022-08-20T00:36:52.260Z,0.00
2022-08-20T00:37:42.283Z,0.00
2022-08-20T00:38:32.253Z,0.00
2022-08-20T00:39:22.241Z,0.00
2022-08-20T00:40:22.368Z,0.00
2022-08-20T00:41:03.231Z,0.00
2022-08-20T00:41:52.205Z,0.00
2022-08-20T00:42:42.229Z,0.00
2022-08-20T00:43:32.189Z,0.00
2022-08-20T00:44:22.214Z,0.00
2022-08-20T00:45:12.189Z,0.00
2022-08-20T00:46:02.177Z,0.00
2022-08-20T00:46:52.183Z,0.00
2022-08-20T00:47:42.167Z,0.00
2022-08-20T00:48:33.132Z,0.00
2022-08-20T00:49:22.151Z,0.00
2022-08-20T00:50:12.131Z,0.00
2022-08-20T00:51:03.111Z,0.00
2022-08-20T00:51:52.132Z,0.00
2022-08-20T00:52:42.108Z,0.00
2022-08-20T00:53:33.091Z,0.00
2022-08-20T00:54:22.084Z,0.00
2022-08-20T00:55:12.063Z,0.00
2022-08-20T00:56:02.084Z,0.00
2022-08-20T00:56:52.107Z,0.00
2022-08-20T00:57:59.157Z,0.00
2022-08-20T00:58:33.030Z,0.00
2022-08-20T00:59:22.030Z,0.00
2022-08-20T01:00:12.022Z,0.00
2022-08-20T01:01:02.020Z,0.00
2022-08-20T01:01:55.541Z,0.00
2022-08-20T01:02:42.003Z,0.00
2022-08-20T01:03:31.980Z,0.00
2022-08-20T01:04:21.968Z,0.00
2022-08-20T01:05:11.978Z,0.00
2022-08-20T01:06:01.960Z,0.00
2022-08-20T01:06:51.970Z,0.00
2022-08-20T01:07:41.940Z,0.00
2022-08-20T01:08:31.949Z,0.00
2022-08-20T01:09:50.158Z,0.00
2022-08-20T01:10:12.908Z,0.00
2022-08-20T01:11:01.897Z,0.00
2022-08-20T01:11:51.919Z,0.00
2022-08-20T01:12:41.900Z,0.00
2022-08-20T01:13:31.881Z,0.00
2022-08-20T01:14:21.882Z,0.00
2022-08-20T01:15:11.859Z,0.00
2022-08-20T01:16:01.846Z,0.00
2022-08-20T01:16:51.877Z,0.00
2022-08-20T01:17:41.852Z,0.00
2022-08-20T01:18:31.821Z,0.00
2022-08-20T01:19:29.845Z,0.00
2022-08-20T01:20:12.830Z,0.00
2022-08-20T01:21:01.818Z,0.00
2022-08-20T01:21:51.855Z,0.00
2022-08-20T01:22:41.782Z,0.00
2022-08-20T01:23:31.770Z,0.00
2022-08-20T01:24:21.779Z,0.00
2022-08-20T01:25:11.763Z,0.00
2022-08-20T01:26:01.759Z,0.00
2022-08-20T01:26:51.742Z,0.00
2022-08-20T01:27:42.916Z,0.00
2022-08-20T01:28:31.731Z,0.00
2022-08-20T01:29:21.709Z,0.00
2022-08-20T01:30:11.711Z,0.00
2022-08-20T01:31:01.699Z,0.00
2022-08-20T01:31:51.677Z,0.00
2022-08-20T01:32:41.667Z,0.00
2022-08-20T01:33:31.691Z,0.00
2022-08-20T01:34:21.658Z,0.00
2022-08-20T01:35:11.663Z,0.00
2022-08-20T01:36:01.629Z,0.00
2022-08-20T01:36:51.652Z,0.00
2022-08-20T01:37:41.619Z,0.00
2022-08-20T01:38:31.630Z,0.00
2022-08-20T01:39:21.588Z,0.00
2022-08-20T01:40:11.607Z,0.00
2022-08-20T01:41:01.591Z,0.00
2022-08-20T01:41:51.578Z,0.00
2022-08-20T01:42:58.487Z,0.00
2022-08-20T01:43:32.597Z,0.00
2022-08-20T01:44:21.548Z,0.00
2022-08-20T01:45:11.542Z,0.00
2022-08-20T01:46:01.540Z,0.00
2022-08-20T01:46:51.521Z,0.00
2022-08-20T01:47:41.499Z,0.00
2022-08-20T01:48:31.499Z,0.00
2022-08-20T01:49:23.629Z,0.00
2022-08-20T01:50:11.479Z,0.00
2022-08-20T01:51:01.491Z,0.00
2022-08-20T01:51:51.469Z,0.00
2022-08-20T01:52:41.470Z,0.00
2022-08-20T01:53:31.457Z,0.00
2022-08-20T01:54:21.436Z,0.00
2022-08-20T01:55:11.427Z,0.00
2022-08-20T01:56:01.447Z,0.00
2022-08-20T01:56:51.408Z,0.00
2022-08-20T01:57:41.451Z,0.00
2022-08-20T01:58:31.405Z,0.00
2022-08-20T01:59:21.387Z,0.00
2022-08-20T02:00:19.723Z,0.00
2022-08-20T02:01:02.380Z,0.00
2022-08-20T02:01:51.458Z,0.00
2022-08-20T02:02:41.367Z,0.00
2022-08-20T02:03:36.294Z,0.00
2022-08-20T02:04:22.338Z,0.00
2022-08-20T02:05:11.358Z,0.00
2022-08-20T02:06:01.318Z,0.00
2022-08-20T02:06:57.294Z,0.00
2022-08-20T02:07:42.322Z,0.00
2022-08-20T02:08:31.298Z,0.00
2022-08-20T02:09:21.296Z,0.00
2022-08-20T02:10:11.278Z,0.00
2022-08-20T02:11:01.256Z,0.00
2022-08-20T02:11:51.268Z,0.00
2022-08-20T02:12:41.247Z,0.00
2022-08-20T02:13:31.241Z,0.00
2022-08-20T02:14:21.263Z,0.00
2022-08-20T02:15:11.215Z,0.00
2022-08-20T02:16:01.220Z,0.00
2022-08-20T02:16:55.281Z,0.00
2022-08-20T02:17:41.178Z,0.00
2022-08-20T02:18:31.181Z,0.00
2022-08-20T02:19:21.164Z,0.00
2022-08-20T02:20:11.199Z,0.00
2022-08-20T02:21:01.145Z,0.00
2022-08-20T02:21:51.138Z,0.00
2022-08-20T02:22:41.137Z,0.00
2022-08-20T02:23:32.130Z,0.00
2022-08-20T02:24:21.122Z,0.00
2022-08-20T02:25:11.139Z,0.00
2022-08-20T02:26:01.088Z,0.00
2022-08-20T02:26:51.087Z,0.00
2022-08-20T02:27:41.074Z,0.00
2022-08-20T02:28:31.076Z,0.00
2022-08-20T02:29:21.057Z,0.00
2022-08-20T02:30:11.080Z,0.00
2022-08-20T02:31:02.059Z,0.00
2022-08-20T02:32:25.065Z,0.00
2022-08-20T02:32:42.023Z,0.00
2022-08-20T02:33:31.027Z,0.00
2022-08-20T02:34:22.899Z,0.00
2022-08-20T02:35:11.007Z,0.00
2022-08-20T02:36:00.995Z,0.00
2022-08-20T02:36:51.026Z,0.00
2022-08-20T02:37:40.977Z,0.00
2022-08-20T02:38:30.989Z,0.00
2022-08-20T02:39:20.947Z,0.00
2022-08-20T02:40:10.984Z,0.00
2022-08-20T02:41:00.935Z,0.00
2022-08-20T02:41:50.944Z,0.00
2022-08-20T02:42:40.936Z,0.00
2022-08-20T02:43:30.907Z,0.00
2022-08-20T02:44:20.917Z,0.00
2022-08-20T02:45:10.909Z,0.00
2022-08-20T02:46:00.886Z,0.00
2022-08-20T02:46:50.876Z,0.00
2022-08-20T02:47:40.876Z,0.00
2022-08-20T02:48:30.856Z,0.00
2022-08-20T02:49:20.837Z,0.00
2022-08-20T02:50:10.894Z,0.00
2022-08-20T02:51:00.817Z,0.00
2022-08-20T02:51:50.817Z,0.00
2022-08-20T02:52:40.822Z,0.00
2022-08-20T02:53:31.807Z,0.00
2022-08-20T02:54:20.784Z,0.00
2022-08-20T02:55:10.804Z,0.00
2022-08-20T02:56:01.786Z,0.00
2022-08-20T02:56:50.776Z,0.00
2022-08-20T02:57:40.747Z,0.00
2022-08-20T02:58:30.756Z,0.00
2022-08-20T02:59:20.789Z,0.00
2022-08-20T03:00:10.739Z,0.00
2022-08-20T03:01:00.755Z,0.00
2022-08-20T03:01:55.855Z,0.00
2022-08-20T03:02:41.714Z,0.00
2022-08-20T03:03:30.696Z,0.00
2022-08-20T03:04:20.715Z,0.00
2022-08-20T03:05:11.706Z,0.00
2022-08-20T03:06:00.666Z,0.00
2022-08-20T03:06:50.666Z,0.00
2022-08-20T03:07:40.655Z,0.00
2022-08-20T03:08:30.635Z,0.00
2022-08-20T03:09:20.679Z,0.00
2022-08-20T03:10:10.616Z,0.00
2022-08-20T03:11:00.615Z,0.00
2022-08-20T03:11:50.616Z,0.00
2022-08-20T03:12:40.598Z,0.00
2022-08-20T03:13:30.583Z,0.00
2022-08-20T03:14:20.565Z,0.00
2022-08-20T03:15:17.295Z,0.00
2022-08-20T03:16:01.561Z,0.00
2022-08-20T03:16:50.554Z,0.00
2022-08-20T03:17:40.546Z,0.00
2022-08-20T03:18:30.542Z,0.00
2022-08-20T03:19:20.512Z,0.00
2022-08-20T03:20:10.525Z,0.00
2022-08-20T03:21:00.514Z,0.00
2022-08-20T03:21:50.511Z,0.00
2022-08-20T03:22:40.502Z,0.00
2022-08-20T03:23:30.494Z,0.00
2022-08-20T03:24:20.504Z,0.00
2022-08-20T03:25:10.453Z,0.00
2022-08-20T03:26:00.451Z,0.00
2022-08-20T03:26:50.455Z,0.00
2022-08-20T03:27:40.423Z,0.00
2022-08-20T03:28:30.427Z,0.00
2022-08-20T03:29:20.414Z,0.00
2022-08-20T03:30:10.424Z,0.00
2022-08-20T03:31:00.395Z,0.00
2022-08-20T03:31:50.398Z,0.00
2022-08-20T03:32:40.364Z,0.00
2022-08-20T03:33:30.375Z,0.00
2022-08-20T03:34:20.356Z,0.00
2022-08-20T03:35:10.355Z,0.00
2022-08-20T03:36:00.334Z,0.00
2022-08-20T03:36:50.324Z,0.00
2022-08-20T03:37:40.516Z,0.00
2022-08-20T03:38:33.219Z,0.00
2022-08-20T03:39:20.304Z,0.00
2022-08-20T03:40:10.311Z,0.00
2022-08-20T03:41:00.275Z,0.00
2022-08-20T03:41:50.286Z,0.00
2022-08-20T03:42:40.275Z,0.00
2022-08-20T03:43:30.264Z,0.00
2022-08-20T03:44:20.234Z,0.00
2022-08-20T03:45:10.234Z,0.00
2022-08-20T03:46:00.235Z,0.00
2022-08-20T03:46:50.224Z,0.00
2022-08-20T03:47:40.220Z,0.00
2022-08-20T03:48:30.226Z,0.00
2022-08-20T03:49:20.183Z,0.00
2022-08-20T03:50:10.194Z,0.00
2022-08-20T03:51:00.163Z,0.00
2022-08-20T03:51:58.292Z,0.00
2022-08-20T03:52:41.157Z,0.00
2022-08-20T03:53:30.154Z,0.00
2022-08-20T03:54:20.156Z,0.00
2022-08-20T03:55:10.123Z,0.00
2022-08-20T03:56:02.361Z,0.00
2022-08-20T03:56:50.103Z,0.00
2022-08-20T03:57:40.096Z,0.00
2022-08-20T03:58:34.901Z,0.00
2022-08-20T03:59:21.074Z,0.00
2022-08-20T04:00:10.074Z,0.00
2022-08-20T04:01:00.123Z,0.00
2022-08-20T04:01:50.239Z,0.00
2022-08-20T04:02:40.033Z,0.00
2022-08-20T04:03:30.053Z,0.00
2022-08-20T04:04:20.035Z,0.00
2022-08-20T04:05:10.023Z,0.00
2022-08-20T04:06:00.000Z,0.00
2022-08-20T04:06:50.035Z,0.00
2022-08-20T04:07:39.994Z,0.00
2022-08-20T04:08:29.984Z,0.00
2022-08-20T04:09:19.961Z,0.00
2022-08-20T04:10:09.967Z,0.00
2022-08-20T04:10:59.955Z,0.00
2022-08-20T04:11:49.942Z,0.00
2022-08-20T04:12:39.959Z,0.00
2022-08-20T04:13:29.934Z,0.00
2022-08-20T04:14:20.597Z,0.00
2022-08-20T04:15:09.915Z,0.00
2022-08-20T04:15:59.932Z,0.00
2022-08-20T04:16:49.898Z,0.00
2022-08-20T04:17:39.874Z,0.00
2022-08-20T04:18:29.862Z,0.00
2022-08-20T04:19:19.857Z,0.00
2022-08-20T04:20:09.844Z,0.00
2022-08-20T04:20:59.902Z,0.00
2022-08-20T04:21:49.844Z,0.00
2022-08-20T04:22:39.823Z,0.00
2022-08-20T04:23:29.832Z,0.00
2022-08-20T04:24:22.654Z,0.00
2022-08-20T04:25:10.791Z,0.00
2022-08-20T04:26:00.820Z,0.00
2022-08-20T04:26:49.805Z,0.00
2022-08-20T04:27:39.783Z,0.00
2022-08-20T04:28:29.793Z,0.00
2022-08-20T04:29:19.744Z,0.00
2022-08-20T04:30:09.742Z,0.00
2022-08-20T04:30:59.764Z,0.00
2022-08-20T04:31:49.743Z,0.00
2022-08-20T04:32:39.712Z,0.00
2022-08-20T04:33:33.849Z,5.62
2022-08-20T04:34:20.712Z,5.62
2022-08-20T04:35:09.691Z,5.62
2022-08-20T04:35:59.685Z,5.62
2022-08-20T04:36:49.671Z,5.62
2022-08-20T04:37:39.682Z,5.62
2022-08-20T04:38:47.985Z,5.62
2022-08-20T04:39:20.664Z,5.62
2022-08-20T04:40:09.737Z,5.62
2022-08-20T04:40:59.645Z,5.62
2022-08-20T04:41:49.622Z,11.25
2022-08-20T04:42:39.643Z,11.25
2022-08-20T04:43:29.591Z,11.25
2022-08-20T04:44:19.582Z,11.25
2022-08-20T04:45:09.599Z,11.25
2022-08-20T04:45:59.574Z,11.25
2022-08-20T04:46:49.562Z,11.25
2022-08-20T04:47:39.548Z,11.25
2022-08-20T04:48:29.533Z,11.25
2022-08-20T04:49:19.541Z,11.25
2022-08-20T04:50:09.512Z,16.88
2022-08-20T04:50:59.553Z,16.88
2022-08-20T04:51:49.502Z,16.88
2022-08-20T04:52:39.491Z,16.88
2022-08-20T04:53:29.472Z,16.88
2022-08-20T04:54:19.491Z,16.88
2022-08-20T04:55:09.471Z,22.50
2022-08-20T04:55:59.464Z,22.50
2022-08-20T04:56:49.451Z,22.50
2022-08-20T04:57:39.441Z,22.50
2022-08-20T04:58:29.438Z,22.50
2022-08-20T04:59:19.430Z,22.50
2022-08-20T05:00:09.424Z,28.12
2022-08-20T05:01:01.219Z,28.12
2022-08-20T05:01:49.400Z,28.12
2022-08-20T05:02:39.379Z,33.75
2022-08-20T05:03:29.384Z,33.75
2022-08-20T05:04:19.390Z,33.75
2022-08-20T05:05:09.360Z,33.75
2022-08-20T05:05:59.351Z,33.75
2022-08-20T05:06:49.341Z,39.38
2022-08-20T05:07:39.321Z,39.38
2022-08-20T05:08:29.313Z,39.38
2022-08-20T05:09:19.321Z,45.00
2022-08-20T05:10:09.331Z,45.00
2022-08-20T05:11:16.552Z,50.62
2022-08-20T05:11:50.271Z,50.62
2022-08-20T05:12:39.280Z,56.25
2022-08-20T05:13:29.272Z,56.25
2022-08-20T05:14:19.260Z,56.25
2022-08-20T05:15:09.264Z,56.25
2022-08-20T05:15:59.261Z,61.88
2022-08-20T05:16:49.220Z,61.88
2022-08-20T05:17:39.223Z,61.88
2022-08-20T05:18:29.211Z,61.88
2022-08-20T05:19:19.218Z,61.88
2022-08-20T05:20:09.204Z,61.88
2022-08-20T05:20:59.190Z,61.88
2022-08-20T05:21:49.211Z,56.25
2022-08-20T05:22:39.158Z,56.25
2022-08-20T05:23:29.151Z,56.25
2022-08-20T05:24:19.150Z,56.25
2022-08-20T05:25:09.150Z,56.25
2022-08-20T05:25:59.127Z,56.25
2022-08-20T05:26:49.110Z,56.25
2022-08-20T05:27:39.197Z,56.25
2022-08-20T05:28:29.100Z,56.25
2022-08-20T05:29:19.120Z,56.25
2022-08-20T05:30:09.114Z,56.25
2022-08-20T05:30:59.069Z,50.62
2022-08-20T05:31:49.058Z,50.62
2022-08-20T05:32:44.456Z,50.62
2022-08-20T05:33:30.053Z,50.62
2022-08-20T05:34:19.048Z,50.62
2022-08-20T05:35:09.029Z,56.25
2022-08-20T05:35:59.031Z,56.25
2022-08-20T05:36:49.287Z,56.25
2022-08-20T05:37:39.009Z,56.25
2022-08-20T05:38:28.997Z,56.25
2022-08-20T05:39:18.982Z,56.25
2022-08-20T05:40:09.007Z,61.88
2022-08-20T05:40:58.978Z,61.88
2022-08-20T05:41:48.957Z,61.88
2022-08-20T05:42:38.938Z,61.88
2022-08-20T05:43:28.927Z,61.88
2022-08-20T05:44:18.944Z,61.88
2022-08-20T05:45:11.347Z,67.50
2022-08-20T05:45:58.945Z,67.50
2022-08-20T05:46:48.889Z,73.12
2022-08-20T05:47:38.886Z,73.12
2022-08-20T05:48:28.879Z,78.75
2022-08-20T05:49:18.882Z,78.75
2022-08-20T05:50:08.850Z,84.38
2022-08-20T05:50:58.878Z,90.00
2022-08-20T05:51:48.850Z,95.62
2022-08-20T05:52:38.830Z,106.88
2022-08-20T05:53:28.838Z,112.50
2022-08-20T05:54:18.819Z,106.88
2022-08-20T05:55:08.798Z,95.62
2022-08-20T05:55:58.796Z,78.75
2022-08-20T05:56:48.808Z,78.75
2022-08-20T05:57:38.777Z,78.75
2022-08-20T05:58:28.780Z,84.38
2022-08-20T05:59:22.270Z,90.00
2022-08-20T06:00:09.757Z,95.62
2022-08-20T06:00:58.810Z,95.62
2022-08-20T06:01:48.782Z,101.25
2022-08-20T06:02:38.738Z,106.88
2022-08-20T06:03:28.719Z,112.50
2022-08-20T06:04:18.707Z,118.12
2022-08-20T06:05:08.708Z,123.75
2022-08-20T06:05:58.696Z,129.38
2022-08-20T06:06:48.687Z,140.62
2022-08-20T06:07:38.687Z,151.88
2022-08-20T06:08:28.662Z,157.50
2022-08-20T06:09:31.127Z,163.12
2022-08-20T06:10:09.650Z,168.75
2022-08-20T06:10:58.647Z,180.00
2022-08-20T06:11:48.635Z,185.62
2022-08-20T06:12:38.618Z,191.25
2022-08-20T06:13:28.611Z,191.25
2022-08-20T06:14:18.608Z,185.62
2022-08-20T06:15:08.607Z,185.62
2022-08-20T06:15:58.576Z,191.25
2022-08-20T06:16:57.138Z,202.50
2022-08-20T06:17:39.754Z,208.12
2022-08-20T06:18:29.003Z,213.75
2022-08-20T06:19:24.197Z,225.00
2022-08-20T06:20:09.537Z,225.00
2022-08-20T06:20:58.519Z,219.38
2022-08-20T06:21:48.506Z,219.38
2022-08-20T06:22:38.511Z,213.75
2022-08-20T06:23:28.488Z,208.12
2022-08-20T06:24:19.497Z,202.50
2022-08-20T06:25:08.539Z,191.25
2022-08-20T06:25:58.478Z,185.62
2022-08-20T06:26:48.448Z,185.62
2022-08-20T06:27:38.460Z,180.00
2022-08-20T06:28:28.445Z,168.75
2022-08-20T06:29:18.488Z,151.88
2022-08-20T06:30:08.416Z,146.25
2022-08-20T06:30:58.417Z,135.00
2022-08-20T06:31:48.417Z,123.75
2022-08-20T06:32:38.395Z,123.75
2022-08-20T06:33:28.378Z,112.50
2022-08-20T06:34:18.419Z,106.88
2022-08-20T06:35:08.375Z,101.25
2022-08-20T06:35:58.377Z,106.88
2022-08-20T06:36:48.358Z,112.50
2022-08-20T06:37:38.349Z,118.12
2022-08-20T06:38:28.327Z,118.12
2022-08-20T06:39:18.318Z,123.75
2022-08-20T06:40:08.386Z,135.00
2022-08-20T06:40:58.305Z,146.25
2022-08-20T06:41:48.297Z,163.12
2022-08-20T06:42:38.307Z,168.75
2022-08-20T06:43:28.286Z,157.50
2022-08-20T06:44:18.276Z,146.25
2022-08-20T06:45:08.288Z,135.00
2022-08-20T06:45:58.276Z,129.38
2022-08-20T06:46:48.248Z,118.12
2022-08-20T06:47:38.248Z,112.50
2022-08-20T06:48:28.224Z,118.12
2022-08-20T06:49:18.237Z,123.75
2022-08-20T06:50:08.218Z,123.75
2022-08-20T06:50:58.266Z,129.38
2022-08-20T06:51:51.897Z,146.25
2022-08-20T06:52:52.697Z,157.50
2022-08-20T06:53:29.345Z,163.12
2022-08-20T06:54:18.198Z,163.12
2022-08-20T06:55:08.167Z,157.50
2022-08-20T06:55:58.146Z,146.25
2022-08-20T06:56:48.149Z,123.75
2022-08-20T06:57:38.159Z,112.50
2022-08-20T06:58:37.159Z,112.50
2022-08-20T06:59:19.123Z,118.12
2022-08-20T07:00:08.136Z,118.12
2022-08-20T07:01:01.081Z,118.12
2022-08-20T07:01:49.087Z,123.75
2022-08-20T07:02:38.077Z,123.75
2022-08-20T07:03:28.065Z,123.75
2022-08-20T07:04:18.065Z,123.75
2022-08-20T07:05:08.079Z,140.62
2022-08-20T07:05:58.055Z,168.75
2022-08-20T07:06:48.061Z,196.88
2022-08-20T07:07:38.026Z,208.12
2022-08-20T07:08:28.034Z,219.38
2022-08-20T07:09:18.017Z,219.38
2022-08-20T07:10:08.025Z,230.62
2022-08-20T07:10:57.996Z,253.12
2022-08-20T07:11:47.996Z,275.62
2022-08-20T07:12:38.006Z,275.62
2022-08-20T07:13:28.002Z,270.00
2022-08-20T07:14:17.956Z,270.00
2022-08-20T07:15:07.946Z,275.62
2022-08-20T07:15:57.969Z,298.12
2022-08-20T07:16:47.936Z,303.75
2022-08-20T07:17:37.938Z,292.50
2022-08-20T07:18:29.115Z,275.62
2022-08-20T07:19:17.928Z,264.38
2022-08-20T07:20:07.898Z,258.75
2022-08-20T07:20:57.908Z,258.75
2022-08-20T07:21:47.886Z,270.00
2022-08-20T07:22:37.885Z,298.12
2022-08-20T07:23:27.874Z,326.25
2022-08-20T07:24:17.886Z,331.88
2022-08-20T07:25:07.845Z,315.00
2022-08-20T07:25:57.849Z,281.25
2022-08-20T07:26:47.826Z,247.50
2022-08-20T07:27:37.843Z,225.00
2022-08-20T07:28:27.824Z,225.00
2022-08-20T07:29:18.014Z,236.25
2022-08-20T07:30:12.185Z,230.62
2022-08-20T07:30:58.814Z,208.12
2022-08-20T07:31:48.796Z,208.12
2022-08-20T07:32:39.489Z,236.25
2022-08-20T07:33:28.340Z,270.00
2022-08-20T07:34:17.756Z,292.50
2022-08-20T07:35:07.755Z,298.12
2022-08-20T07:35:57.759Z,286.88
2022-08-20T07:36:47.756Z,281.25
2022-08-20T07:37:37.724Z,298.12
2022-08-20T07:38:27.738Z,303.75
2022-08-20T07:39:17.715Z,309.38
2022-08-20T07:40:07.748Z,298.12
2022-08-20T07:40:57.707Z,286.88
2022-08-20T07:41:56.399Z,275.62
2022-08-20T07:42:38.674Z,258.75
2022-08-20T07:43:27.708Z,247.50
2022-08-20T07:44:17.678Z,219.38
2022-08-20T07:45:07.687Z,196.88
2022-08-20T07:45:57.654Z,146.25
2022-08-20T07:46:47.635Z,123.75
2022-08-20T07:47:37.636Z,123.75
2022-08-20T07:48:30.980Z,129.38
2022-08-20T07:49:17.635Z,151.88
2022-08-20T07:50:07.607Z,168.75
2022-08-20T07:50:57.596Z,168.75
2022-08-20T07:51:47.596Z,168.75
2022-08-20T07:52:37.575Z,163.12
2022-08-20T07:53:30.125Z,157.50
2022-08-20T07:54:17.585Z,146.25
2022-08-20T07:55:07.558Z,129.38
2022-08-20T07:55:59.429Z,123.75
2022-08-20T07:56:47.545Z,106.88
2022-08-20T07:57:37.524Z,101.25
2022-08-20T07:58:29.623Z,106.88
2022-08-20T07:59:18.536Z,112.50
2022-08-20T08:00:07.505Z,118.12
2022-08-20T08:00:57.551Z,129.38
2022-08-20T08:01:47.495Z,140.62
2022-08-20T08:02:37.485Z,135.00
2022-08-20T08:03:39.749Z,123.75
2022-08-20T08:04:18.465Z,118.12
2022-08-20T08:05:07.445Z,123.75
2022-08-20T08:05:57.445Z,135.00
2022-08-20T08:06:47.436Z,151.88
2022-08-20T08:07:37.428Z,163.12
2022-08-20T08:08:27.414Z,168.75
2022-08-20T08:09:17.436Z,163.12
2022-08-20T08:10:07.396Z,168.75
2022-08-20T08:10:57.395Z,191.25
2022-08-20T08:11:47.860Z,213.75
2022-08-20T08:12:37.369Z,225.00
2022-08-20T08:13:27.396Z,225.00
2022-08-20T08:14:17.385Z,225.00
2022-08-20T08:15:07.356Z,236.25
2022-08-20T08:15:57.334Z,247.50
2022-08-20T08:16:47.326Z,253.12
2022-08-20T08:17:37.347Z,253.12
2022-08-20T08:18:31.734Z,236.25
2022-08-20T08:19:17.325Z,230.62
2022-08-20T08:20:07.327Z,241.88
2022-08-20T08:20:57.370Z,241.88
2022-08-20T08:21:47.276Z,236.25
2022-08-20T08:22:37.265Z,230.62
2022-08-20T08:23:32.208Z,225.00
2022-08-20T08:24:21.681Z,219.38
2022-08-20T08:25:08.267Z,208.12
2022-08-20T08:25:57.244Z,202.50
2022-08-20T08:26:47.264Z,196.88
2022-08-20T08:27:37.219Z,191.25
2022-08-20T08:28:27.213Z,185.62
2022-08-20T08:29:17.216Z,185.62
2022-08-20T08:30:07.217Z,185.62
2022-08-20T08:30:57.207Z,185.62
2022-08-20T08:31:47.462Z,185.62
2022-08-20T08:32:37.173Z,180.00
2022-08-20T08:33:27.175Z,180.00
2022-08-20T08:34:17.161Z,174.38
2022-08-20T08:35:07.158Z,174.38
2022-08-20T08:35:57.145Z,174.38
2022-08-20T08:36:47.130Z,174.38
2022-08-20T08:37:37.161Z,174.38
2022-08-20T08:38:27.125Z,174.38
2022-08-20T08:39:17.095Z,168.75
2022-08-20T08:40:07.133Z,168.75
2022-08-20T08:41:00.078Z,163.12
2022-08-20T08:41:47.086Z,168.75
2022-08-20T08:42:41.224Z,174.38
2022-08-20T08:43:31.803Z,174.38
2022-08-20T08:44:17.100Z,185.62
2022-08-20T08:45:07.055Z,191.25
2022-08-20T08:45:57.024Z,196.88
2022-08-20T08:46:47.025Z,208.12
2022-08-20T08:47:37.024Z,202.50
2022-08-20T08:48:27.015Z,185.62
2022-08-20T08:49:16.995Z,174.38
2022-08-20T08:50:07.068Z,163.12
2022-08-20T08:50:56.975Z,163.12
2022-08-20T08:51:46.975Z,174.38
2022-08-20T08:52:36.963Z,185.62
2022-08-20T08:53:26.974Z,196.88
2022-08-20T08:54:16.955Z,196.88
2022-08-20T08:55:06.935Z,202.50
2022-08-20T08:55:56.934Z,213.75
2022-08-20T08:56:49.574Z,230.62
2022-08-20T08:57:36.925Z,236.25
2022-08-20T08:58:26.905Z,230.62
2022-08-20T08:59:17.076Z,230.62
2022-08-20T09:00:06.895Z,230.62
2022-08-20T09:01:01.666Z,236.25
2022-08-20T09:01:54.989Z,247.50
2022-08-20T09:02:37.899Z,264.38
2022-08-20T09:03:26.853Z,298.12
2022-08-20T09:04:16.846Z,309.38
2022-08-20T09:05:06.848Z,315.00
2022-08-20T09:05:56.845Z,309.38
2022-08-20T09:06:49.342Z,309.38
2022-08-20T09:07:37.802Z,315.00
2022-08-20T09:08:26.817Z,315.00
2022-08-20T09:09:16.775Z,309.38
2022-08-20T09:10:06.774Z,303.75
2022-08-20T09:10:56.762Z,298.12
2022-08-20T09:11:46.966Z,298.12
2022-08-20T09:12:36.747Z,309.38
2022-08-20T09:13:26.745Z,315.00
2022-08-20T09:14:16.736Z,331.88
2022-08-20T09:15:06.743Z,337.50
2022-08-20T09:15:56.715Z,382.50
2022-08-20T09:16:52.380Z,416.25
2022-08-20T09:17:37.704Z,416.25
2022-08-20T09:18:26.693Z,405.00
2022-08-20T09:19:16.685Z,393.75
2022-08-20T09:20:06.676Z,393.75
2022-08-20T09:20:56.696Z,427.50
2022-08-20T09:21:46.668Z,472.50
2022-08-20T09:22:36.645Z,523.12
2022-08-20T09:23:26.654Z,528.75
2022-08-20T09:24:16.634Z,528.75
2022-08-20T09:25:06.638Z,551.25
2022-08-20T09:25:56.627Z,568.12
2022-08-20T09:26:46.595Z,585.00
2022-08-20T09:27:36.583Z,601.88
2022-08-20T09:28:26.578Z,630.00
2022-08-20T09:29:17.585Z,630.00
2022-08-20T09:30:06.594Z,601.88
2022-08-20T09:30:56.554Z,568.12
2022-08-20T09:31:46.601Z,534.38
2022-08-20T09:32:36.548Z,495.00
2022-08-20T09:33:26.523Z,461.25
2022-08-20T09:34:16.529Z,376.88
2022-08-20T09:35:09.302Z,298.12
2022-08-20T09:35:56.505Z,241.88
2022-08-20T09:36:46.504Z,236.25
2022-08-20T09:37:37.655Z,241.88
2022-08-20T09:38:26.465Z,230.62
2022-08-20T09:39:16.445Z,230.62
2022-08-20T09:40:06.524Z,213.75
2022-08-20T09:40:56.446Z,174.38
2022-08-20T09:41:46.446Z,151.88
2022-08-20T09:42:41.036Z,157.50
2022-08-20T09:43:27.405Z,180.00
2022-08-20T09:44:16.405Z,213.75
2022-08-20T09:45:06.385Z,275.62
2022-08-20T09:45:56.400Z,309.38
2022-08-20T09:46:46.367Z,326.25
2022-08-20T09:47:36.366Z,326.25
2022-08-20T09:48:32.040Z,331.88
2022-08-20T09:49:17.345Z,326.25
2022-08-20T09:50:06.338Z,320.62
2022-08-20T09:50:56.327Z,326.25
2022-08-20T09:51:46.326Z,326.25
2022-08-20T09:52:40.221Z,337.50
2022-08-20T09:53:26.307Z,348.75
2022-08-20T09:54:16.283Z,354.38
2022-08-20T09:55:06.293Z,360.00
2022-08-20T09:55:56.255Z,365.62
2022-08-20T09:56:46.267Z,365.62
2022-08-20T09:57:36.251Z,360.00
2022-08-20T09:58:26.262Z,348.75
2022-08-20T09:59:16.235Z,343.12
2022-08-20T10:00:06.215Z,348.75
2022-08-20T10:00:56.215Z,365.62
2022-08-20T10:01:46.265Z,388.12
2022-08-20T10:02:36.183Z,410.62
2022-08-20T10:03:26.427Z,410.62
2022-08-20T10:04:16.179Z,421.88
2022-08-20T10:05:06.178Z,421.88
2022-08-20T10:05:56.180Z,416.25
2022-08-20T10:06:46.143Z,410.62
2022-08-20T10:07:36.128Z,405.00
2022-08-20T10:08:26.136Z,399.38
2022-08-20T10:09:16.143Z,399.38
2022-08-20T10:10:06.115Z,399.38
2022-08-20T10:10:56.105Z,393.75
2022-08-20T10:11:46.094Z,388.12
2022-08-20T10:12:36.065Z,382.50
2022-08-20T10:13:26.075Z,382.50
2022-08-20T10:14:16.053Z,405.00
2022-08-20T10:15:06.075Z,405.00
2022-08-20T10:15:56.046Z,405.00
2022-08-20T10:16:46.027Z,416.25
2022-08-20T10:17:36.013Z,405.00
2022-08-20T10:18:26.035Z,371.25
2022-08-20T10:19:16.038Z,354.38
2022-08-20T10:20:06.035Z,348.75
2022-08-20T10:20:55.975Z,348.75
2022-08-20T10:21:45.975Z,354.38
2022-08-20T10:22:35.966Z,331.88
2022-08-20T10:23:25.957Z,286.88
2022-08-20T10:24:15.945Z,270.00
2022-08-20T10:25:05.938Z,258.75
2022-08-20T10:25:55.954Z,247.50
2022-08-20T10:26:45.963Z,230.62
2022-08-20T10:27:35.928Z,230.62
2022-08-20T10:28:25.915Z,247.50
2022-08-20T10:29:15.911Z,258.75
2022-08-20T10:30:05.886Z,275.62
2022-08-20T10:30:55.885Z,309.38
2022-08-20T10:31:45.894Z,331.88
2022-08-20T10:32:35.857Z,320.62
2022-08-20T10:33:25.870Z,303.75
2022-08-20T10:34:15.855Z,331.88
2022-08-20T10:35:05.845Z,444.38
2022-08-20T10:35:59.938Z,528.75
2022-08-20T10:36:45.824Z,545.62
2022-08-20T10:37:35.795Z,523.12
2022-08-20T10:38:25.796Z,517.50
2022-08-20T10:39:15.827Z,540.00
2022-08-20T10:40:05.848Z,573.75
2022-08-20T10:40:55.764Z,607.50
2022-08-20T10:41:45.769Z,601.88
2022-08-20T10:42:39.204Z,579.38
2022-08-20T10:43:26.746Z,534.38